This is the latest recevied weather packets stored in our database for station/object IU7LMH-13. If no packets are shown the sender has not sent any weather packets the latest 10 day(s).
| Time | Temp. | Humidity | Pressure | Rain* | Wind** | Luminosity | Snow |
|---|---|---|---|---|---|---|---|
| 1777604317 | 11.67° C | 75% | 1019.5 hPa | 0 mm | - | - | - |
| 1777603479 | 11.67° C | 74% | 1019.3 hPa | 0 mm | - | - | - |
| 1777602756 | 11.67° C | 73% | 1019.5 hPa | 0 mm | - | - | - |
| 1777601918 | 11.67° C | 73% | 1019.5 hPa | 0 mm | - | - | - |
| 1777601198 | 11.67° C | 73% | 1019.4 hPa | 0 mm | - | - | - |
| 1777600241 | 11.11° C | 74% | 1019.4 hPa | 0 mm | - | - | - |
| 1777600118 | 11.11° C | 74% | 1019.4 hPa | 0 mm | - | - | - |
| 1777596517 | 11.11° C | 73% | 1019.3 hPa | 0 mm | - | - | - |
| 1777596397 | 11.11° C | 74% | 1019.3 hPa | 0 mm | - | - | - |
| 1777594957 | 11.67° C | 73% | 1019.3 hPa | 0 mm | - | - | - |
| 1777594841 | 11.67° C | 73% | 1019.2 hPa | 0 mm | - | - | - |
| 1777593644 | 11.67° C | 74% | 1019.3 hPa | 0 mm | - | - | - |
| 1777593040 | 11.67° C | 73% | 1019.3 hPa | 0 mm | - | - | - |
| 1777592318 | 11.67° C | 74% | 1019.7 hPa | 0 mm | - | - | - |
| 1777591597 | 11.67° C | 75% | 1019.8 hPa | 0 mm | - | - | - |
| 1777591240 | 11.67° C | 75% | 1019.7 hPa | 0 mm | - | - | - |
| 1777589919 | 11.67° C | 77% | 1020.1 hPa | 0 mm | - | - | - |
| 1777586556 | 11.67° C | 83% | 1020.4 hPa | 0 mm | - | - | - |
| 1777586453 | 11.67° C | 83% | 1020.5 hPa | 0 mm | - | - | - |
| 1777586318 | 11.67° C | 83% | 1020.5 hPa | 0 mm | - | - | - |
| 1777586196 | 11.67° C | 83% | 1020.4 hPa | 0 mm | - | - | - |
| 1777581997 | 13.33° C | 80% | 1020.1 hPa | 0 mm | - | - | - |
| 1777580199 | 13.89° C | 82% | 1020.2 hPa | 0 mm | - | - | - |
| 1777579718 | 13.89° C | 82% | 1020 hPa | 0 mm | - | - | - |
| 1777579358 | 13.89° C | 82% | 1020.1 hPa | 0 mm | - | - | - |
* Rain latest hour (hover to see other rain measurements)
** Current wind speed in m/s (hover to see current wind gust speed)